sensor_id;sensor_type;location;lat;lon;timestamp;pressure;altitude;pressure_sealevel;temperature;humidity
69980;BME280;57318;56.232;43.944;2024-03-02T00:01:26;100497.16;;;1.40;nan
69980;BME280;57318;56.232;43.944;2024-03-02T00:03:52;100503.22;;;1.43;nan
69980;BME280;57318;56.232;43.944;2024-03-02T00:06:21;100501.41;;;1.46;nan
69980;BME280;57318;56.232;43.944;2024-03-02T00:08:47;100498.78;;;1.46;nan
69980;BME280;57318;56.232;43.944;2024-03-02T00:11:12;100508.47;;;1.43;nan
69980;BME280;57318;56.232;43.944;2024-03-02T00:13:40;100506.72;;;1.42;nan
69980;BME280;57318;56.232;43.944;2024-03-02T00:16:06;100501.72;;;1.33;nan
69980;BME280;57318;56.232;43.944;2024-03-02T00:18:34;100500.78;;;1.36;nan
69980;BME280;57318;56.232;43.944;2024-03-02T00:21:01;100504.25;;;1.36;nan
69980;BME280;57318;56.232;43.944;2024-03-02T00:23:31;100508.56;;;1.39;nan
69980;BME280;57318;56.232;43.944;2024-03-02T00:25:57;100504.19;;;1.39;nan
69980;BME280;57318;56.232;43.944;2024-03-02T00:30:57;100506.72;;;1.42;nan
69980;BME280;57318;56.232;43.944;2024-03-02T00:33:26;100503.22;;;1.43;nan
69980;BME280;57318;56.232;43.944;2024-03-02T00:35:53;100507.56;;;1.43;nan
69980;BME280;57318;56.232;43.944;2024-03-02T00:38:19;100498.88;;;1.42;nan
69980;BME280;57318;56.232;43.944;2024-03-02T00:40:45;100501.38;;;1.47;nan
69980;BME280;57318;56.232;43.944;2024-03-02T00:45:49;100498.06;;;1.40;nan
69980;BME280;57318;56.232;43.944;2024-03-02T00:48:16;100503.25;;;1.42;nan
69980;BME280;57318;56.232;43.944;2024-03-02T00:50:42;100505.00;;;1.41;nan
69980;BME280;57318;56.232;43.944;2024-03-02T00:53:11;100506.75;;;1.41;nan
69980;BME280;57318;56.232;43.944;2024-03-02T00:55:37;100511.19;;;1.39;nan
69980;BME280;57318;56.232;43.944;2024-03-02T00:58:03;100511.16;;;1.40;nan
69980;BME280;57318;56.232;43.944;2024-03-02T01:00:29;100504.16;;;1.41;nan
69980;BME280;57318;56.232;43.944;2024-03-02T01:02:55;100506.72;;;1.42;nan
69980;BME280;57318;56.232;43.944;2024-03-02T01:05:20;100511.06;;;1.43;nan
69980;BME280;57318;56.232;43.944;2024-03-02T01:07:46;100511.97;;;1.42;nan
69980;BME280;57318;56.232;43.944;2024-03-02T01:14:11;100505.88;;;1.42;nan
69980;BME280;57318;56.232;43.944;2024-03-02T01:16:37;100514.63;;;1.41;nan
69980;BME280;57318;56.232;43.944;2024-03-02T01:19:03;100516.44;;;1.39;nan
69980;BME280;57318;56.232;43.944;2024-03-02T01:21:29;100515.63;;;1.37;nan
69980;BME280;57318;56.232;43.944;2024-03-02T01:23:54;100516.69;;;1.28;nan
69980;BME280;57318;56.232;43.944;2024-03-02T01:26:20;100522.00;;;1.25;nan
69980;BME280;57318;56.232;43.944;2024-03-02T01:28:46;100524.75;;;1.19;nan
69980;BME280;57318;56.232;43.944;2024-03-02T01:31:11;100523.00;;;1.19;nan
69980;BME280;57318;56.232;43.944;2024-03-02T01:33:37;100526.47;;;1.21;nan
69980;BME280;57318;56.232;43.944;2024-03-02T01:36:03;100529.03;;;1.23;nan
69980;BME280;57318;56.232;43.944;2024-03-02T01:38:30;100531.66;;;1.23;nan
69980;BME280;57318;56.232;43.944;2024-03-02T01:40:56;100533.31;;;1.25;nan
69980;BME280;57318;56.232;43.944;2024-03-02T01:43:22;100533.28;;;1.27;nan
69980;BME280;57318;56.232;43.944;2024-03-02T01:45:48;100531.63;;;1.24;nan
69980;BME280;57318;56.232;43.944;2024-03-02T01:48:13;100535.09;;;1.25;nan
69980;BME280;57318;56.232;43.944;2024-03-02T01:50:39;100528.03;;;1.27;nan
69980;BME280;57318;56.232;43.944;2024-03-02T01:53:05;100534.16;;;1.28;nan
69980;BME280;57318;56.232;43.944;2024-03-02T01:55:30;100539.38;;;1.29;nan
69980;BME280;57318;56.232;43.944;2024-03-02T01:57:57;100538.53;;;1.27;nan
69980;BME280;57318;56.232;43.944;2024-03-02T02:00:23;100547.28;;;1.26;nan
69980;BME280;57318;56.232;43.944;2024-03-02T02:02:51;100547.28;;;1.26;nan
69980;BME280;57318;56.232;43.944;2024-03-02T02:05:18;100546.41;;;1.25;nan
69980;BME280;57318;56.232;43.944;2024-03-02T02:07:44;100546.38;;;1.27;nan
69980;BME280;57318;56.232;43.944;2024-03-02T02:10:10;100545.50;;;1.28;nan
69980;BME280;57318;56.232;43.944;2024-03-02T02:12:36;100549.28;;;1.15;nan
69980;BME280;57318;56.232;43.944;2024-03-02T02:15:03;100551.94;;;1.13;nan
69980;BME280;57318;56.232;43.944;2024-03-02T02:17:31;100545.84;;;1.13;nan
69980;BME280;57318;56.232;43.944;2024-03-02T02:19:56;100539.78;;;1.11;nan
69980;BME280;57318;56.232;43.944;2024-03-02T02:22:22;100544.09;;;1.13;nan
69980;BME280;57318;56.232;43.944;2024-03-02T02:24:48;100545.00;;;1.12;nan
69980;BME280;57318;56.232;43.944;2024-03-02T02:27:14;100543.25;;;1.11;nan
69980;BME280;57318;56.232;43.944;2024-03-02T02:29:41;100537.13;;;1.12;nan
69980;BME280;57318;56.232;43.944;2024-03-02T02:32:07;100537.97;;;1.14;nan
69980;BME280;57318;56.232;43.944;2024-03-02T02:34:33;100535.31;;;1.16;nan
69980;BME280;57318;56.232;43.944;2024-03-02T02:36:59;100528.41;;;1.12;nan
69980;BME280;57318;56.232;43.944;2024-03-02T02:39:25;100536.22;;;1.13;nan
69980;BME280;57318;56.232;43.944;2024-03-02T02:41:50;100540.75;;;1.06;nan
69980;BME280;57318;56.232;43.944;2024-03-02T02:44:16;100548.56;;;1.08;nan
69980;BME280;57318;56.232;43.944;2024-03-02T02:46:41;100546.97;;;1.02;nan
69980;BME280;57318;56.232;43.944;2024-03-02T02:49:07;100551.50;;;0.94;nan
69980;BME280;57318;56.232;43.944;2024-03-02T02:51:33;100558.31;;;1.01;nan
69980;BME280;57318;56.232;43.944;2024-03-02T02:53:59;100552.31;;;0.98;nan
69980;BME280;57318;56.232;43.944;2024-03-02T02:56:24;100550.53;;;0.98;nan
69980;BME280;57318;56.232;43.944;2024-03-02T02:58:50;100549.81;;;0.92;nan
69980;BME280;57318;56.232;43.944;2024-03-02T03:01:16;100550.72;;;0.90;nan
69980;BME280;57318;56.232;43.944;2024-03-02T03:03:45;100553.38;;;0.89;nan
69980;BME280;57318;56.232;43.944;2024-03-02T03:06:11;100557.63;;;0.95;nan
69980;BME280;57318;56.232;43.944;2024-03-02T03:08:37;100555.81;;;0.97;nan
69980;BME280;57318;56.232;43.944;2024-03-02T03:11:04;100557.44;;;1.02;nan
69980;BME280;57318;56.232;43.944;2024-03-02T03:13:31;100554.75;;;1.05;nan
69980;BME280;57318;56.232;43.944;2024-03-02T03:15:57;100556.31;;;1.13;nan
69980;BME280;57318;56.232;43.944;2024-03-02T03:18:23;100563.34;;;1.11;nan
69980;BME280;57318;56.232;43.944;2024-03-02T03:20:48;100554.97;;;0.96;nan
69980;BME280;57318;56.232;43.944;2024-03-02T03:23:15;100552.25;;;1.01;nan
69980;BME280;57318;56.232;43.944;2024-03-02T03:25:43;100549.59;;;1.02;nan
69980;BME280;57318;56.232;43.944;2024-03-02T03:28:09;100549.59;;;1.02;nan
69980;BME280;57318;56.232;43.944;2024-03-02T03:30:38;100551.31;;;1.02;nan
69980;BME280;57318;56.232;43.944;2024-03-02T03:33:04;100550.38;;;1.06;nan
69980;BME280;57318;56.232;43.944;2024-03-02T03:35:33;100550.44;;;1.03;nan
69980;BME280;57318;56.232;43.944;2024-03-02T03:38:00;100553.97;;;1.00;nan
69980;BME280;57318;56.232;43.944;2024-03-02T03:40:26;100554.19;;;0.91;nan
69980;BME280;57318;56.232;43.944;2024-03-02T03:42:52;100562.88;;;0.93;nan
69980;BME280;57318;56.232;43.944;2024-03-02T03:45:17;100567.28;;;0.89;nan
69980;BME280;57318;56.232;43.944;2024-03-02T03:47:43;100565.50;;;0.93;nan
69980;BME280;57318;56.232;43.944;2024-03-02T03:50:09;100571.50;;;0.97;nan
69980;BME280;57318;56.232;43.944;2024-03-02T03:52:35;100573.41;;;0.90;nan
69980;BME280;57318;56.232;43.944;2024-03-02T03:55:01;100571.66;;;0.90;nan
69980;BME280;57318;56.232;43.944;2024-03-02T03:57:30;100579.47;;;0.92;nan
69980;BME280;57318;56.232;43.944;2024-03-02T03:59:55;100579.41;;;0.95;nan
69980;BME280;57318;56.232;43.944;2024-03-02T04:02:21;100583.81;;;0.93;nan
69980;BME280;57318;56.232;43.944;2024-03-02T04:04:47;100575.13;;;0.91;nan
69980;BME280;57318;56.232;43.944;2024-03-02T04:07:12;100580.38;;;0.89;nan
69980;BME280;57318;56.232;43.944;2024-03-02T04:09:38;100588.13;;;0.94;nan
69980;BME280;57318;56.232;43.944;2024-03-02T04:12:04;100585.47;;;0.96;nan
69980;BME280;57318;56.232;43.944;2024-03-02T04:14:30;100584.63;;;0.95;nan
69980;BME280;57318;56.232;43.944;2024-03-02T04:16:55;100589.72;;;1.01;nan
69980;BME280;57318;56.232;43.944;2024-03-02T04:19:21;100591.41;;;1.05;nan
69980;BME280;57318;56.232;43.944;2024-03-02T04:21:46;100584.50;;;1.01;nan
69980;BME280;57318;56.232;43.944;2024-03-02T04:24:12;100591.41;;;1.05;nan
69980;BME280;57318;56.232;43.944;2024-03-02T04:26:38;100595.72;;;1.06;nan
69980;BME280;57318;56.232;43.944;2024-03-02T04:29:04;100594.91;;;1.04;nan
69980;BME280;57318;56.232;43.944;2024-03-02T04:31:29;100595.72;;;1.06;nan
69980;BME280;57318;56.232;43.944;2024-03-02T04:33:55;100594.78;;;1.11;nan
69980;BME280;57318;56.232;43.944;2024-03-02T04:36:21;100600.84;;;1.11;nan
69980;BME280;57318;56.232;43.944;2024-03-02T04:38:47;100594.78;;;1.11;nan
69980;BME280;57318;56.232;43.944;2024-03-02T04:41:13;100594.72;;;1.12;nan
69980;BME280;57318;56.232;43.944;2024-03-02T04:43:39;100597.44;;;1.07;nan
69980;BME280;57318;56.232;43.944;2024-03-02T04:46:05;100607.84;;;1.11;nan
69980;BME280;57318;56.232;43.944;2024-03-02T04:48:32;100600.81;;;1.13;nan
69980;BME280;57318;56.232;43.944;2024-03-02T04:50:57;100598.34;;;1.06;nan
69980;BME280;57318;56.232;43.944;2024-03-02T04:53:23;100603.56;;;1.06;nan
69980;BME280;57318;56.232;43.944;2024-03-02T04:55:49;100601.81;;;1.08;nan
69980;BME280;57318;56.232;43.944;2024-03-02T04:58:20;100598.47;;;1.00;nan
69980;BME280;57318;56.232;43.944;2024-03-02T05:00:46;100596.63;;;1.05;nan
69980;BME280;57318;56.232;43.944;2024-03-02T05:03:12;100591.47;;;1.02;nan
69980;BME280;57318;56.232;43.944;2024-03-02T05:05:38;100590.44;;;1.08;nan
69980;BME280;57318;56.232;43.944;2024-03-02T05:08:04;100589.47;;;1.14;nan
69980;BME280;57318;56.232;43.944;2024-03-02T05:10:30;100584.97;;;1.19;nan
69980;BME280;57318;56.232;43.944;2024-03-02T05:12:56;100590.97;;;1.24;nan
69980;BME280;57318;56.232;43.944;2024-03-02T05:15:25;100595.28;;;1.26;nan
69980;BME280;57318;56.232;43.944;2024-03-02T05:17:51;100599.44;;;1.35;nan
69980;BME280;57318;56.232;43.944;2024-03-02T05:20:17;100606.25;;;1.42;nan
69980;BME280;57318;56.232;43.944;2024-03-02T05:22:42;100606.91;;;1.51;nan
69980;BME280;57318;56.232;43.944;2024-03-02T05:25:08;100607.53;;;1.62;nan
69980;BME280;57318;56.232;43.944;2024-03-02T05:27:36;100602.28;;;1.64;nan
69980;BME280;57318;56.232;43.944;2024-03-02T05:30:02;100605.50;;;1.73;nan
69980;BME280;57318;56.232;43.944;2024-03-02T05:32:30;100602.72;;;1.81;nan
69980;BME280;57318;56.232;43.944;2024-03-02T05:34:56;100606.38;;;1.74;nan
69980;BME280;57318;56.232;43.944;2024-03-02T05:37:21;100604.41;;;1.82;nan
69980;BME280;57318;56.232;43.944;2024-03-02T05:39:47;100604.19;;;1.91;nan
69980;BME280;57318;56.232;43.944;2024-03-02T05:42:13;100609.59;;;1.84;nan
69980;BME280;57318;56.232;43.944;2024-03-02T05:44:38;100606.13;;;1.83;nan
69980;BME280;57318;56.232;43.944;2024-03-02T05:47:04;100609.47;;;1.90;nan
69980;BME280;57318;56.232;43.944;2024-03-02T05:49:30;100610.13;;;1.98;nan
69980;BME280;57318;56.232;43.944;2024-03-02T05:51:56;100615.03;;;2.10;nan
69980;BME280;57318;56.232;43.944;2024-03-02T05:54:22;100614.03;;;2.16;nan
69980;BME280;57318;56.232;43.944;2024-03-02T05:56:48;100620.97;;;2.19;nan
69980;BME280;57318;56.232;43.944;2024-03-02T05:59:14;100630.47;;;2.23;nan
69980;BME280;57318;56.232;43.944;2024-03-02T06:01:42;100627.34;;;2.08;nan
69980;BME280;57318;56.232;43.944;2024-03-02T06:04:09;100639.31;;;2.19;nan
69980;BME280;57318;56.232;43.944;2024-03-02T06:06:37;100640.13;;;2.21;nan
69980;BME280;57318;56.232;43.944;2024-03-02T06:09:03;100629.69;;;2.19;nan
69980;BME280;57318;56.232;43.944;2024-03-02T06:11:33;100640.88;;;2.26;nan
69980;BME280;57318;56.232;43.944;2024-03-02T06:13:59;100640.94;;;2.23;nan
69980;BME280;57318;56.232;43.944;2024-03-02T06:16:25;100637.41;;;2.25;nan
69980;BME280;57318;56.232;43.944;2024-03-02T06:18:50;100636.38;;;2.29;nan
69980;BME280;57318;56.232;43.944;2024-03-02T06:21:17;100632.69;;;2.38;nan
69980;BME280;57318;56.232;43.944;2024-03-02T06:23:43;100621.63;;;2.27;nan
69980;BME280;57318;56.232;43.944;2024-03-02T06:26:09;100628.19;;;2.42;nan
69980;BME280;57318;56.232;43.944;2024-03-02T06:28:35;100635.56;;;2.60;nan
69980;BME280;57318;56.232;43.944;2024-03-02T06:31:02;100631.09;;;2.64;nan
69980;BME280;57318;56.232;43.944;2024-03-02T06:33:27;100634.84;;;2.86;nan
69980;BME280;57318;56.232;43.944;2024-03-02T06:35:54;100635.09;;;3.07;nan
69980;BME280;57318;56.232;43.944;2024-03-02T06:38:19;100639.28;;;3.13;nan
69980;BME280;57318;56.232;43.944;2024-03-02T06:40:45;100646.53;;;3.34;nan
69980;BME280;57318;56.232;43.944;2024-03-02T06:43:11;100642.16;;;3.61;nan
69980;BME280;57318;56.232;43.944;2024-03-02T06:45:37;100651.25;;;3.79;nan
69980;BME280;57318;56.232;43.944;2024-03-02T06:48:03;100657.56;;;4.01;nan
69980;BME280;57318;56.232;43.944;2024-03-02T06:50:29;100658.66;;;4.20;nan
69980;BME280;57318;56.232;43.944;2024-03-02T06:52:56;100655.72;;;4.29;nan
69980;BME280;57318;56.232;43.944;2024-03-02T06:55:22;100654.00;;;4.28;nan
69980;BME280;57318;56.232;43.944;2024-03-02T06:57:50;100657.75;;;4.21;nan
69980;BME280;57318;56.232;43.944;2024-03-02T07:00:16;100652.16;;;4.30;nan
69980;BME280;57318;56.232;43.944;2024-03-02T07:02:44;100659.47;;;4.22;nan
69980;BME280;57318;56.232;43.944;2024-03-02T07:05:10;100659.94;;;4.33;nan
69980;BME280;57318;56.232;43.944;2024-03-02T07:07:36;100659.91;;;4.35;nan
69980;BME280;57318;56.232;43.944;2024-03-02T07:10:06;100658.56;;;4.48;nan
69980;BME280;57318;56.232;43.944;2024-03-02T07:12:33;100657.69;;;4.48;nan
69980;BME280;57318;56.232;43.944;2024-03-02T07:14:58;100656.25;;;4.39;nan
69980;BME280;57318;56.232;43.944;2024-03-02T07:17:32;100667.53;;;4.43;nan
69980;BME280;57318;56.232;43.944;2024-03-02T07:19:58;100653.03;;;4.31;nan
69980;BME280;57318;56.232;43.944;2024-03-02T07:22:24;100659.66;;;4.16;nan
69980;BME280;57318;56.232;43.944;2024-03-02T07:24:50;100659.19;;;4.05;nan
69980;BME280;57318;56.232;43.944;2024-03-02T07:27:16;100660.09;;;4.04;nan
69980;BME280;57318;56.232;43.944;2024-03-02T07:29:43;100657.50;;;4.02;nan
69980;BME280;57318;56.232;43.944;2024-03-02T07:32:09;100666.97;;;4.08;nan
69980;BME280;57318;56.232;43.944;2024-03-02T07:34:36;100656.31;;;3.86;nan
69980;BME280;57318;56.232;43.944;2024-03-02T07:37:03;100656.75;;;3.98;nan
69980;BME280;57318;56.232;43.944;2024-03-02T07:39:29;100662.66;;;4.05;nan
69980;BME280;57318;56.232;43.944;2024-03-02T07:41:55;100666.22;;;4.04;nan
69980;BME280;57318;56.232;43.944;2024-03-02T07:44:21;100661.16;;;4.25;nan
69980;BME280;57318;56.232;43.944;2024-03-02T07:46:47;100654.00;;;4.28;nan
69980;BME280;57318;56.232;43.944;2024-03-02T07:49:15;100654.59;;;4.37;nan
69980;BME280;57318;56.232;43.944;2024-03-02T07:51:42;100657.25;;;4.60;nan
69980;BME280;57318;56.232;43.944;2024-03-02T07:54:07;100661.28;;;4.70;nan
69980;BME280;57318;56.232;43.944;2024-03-02T07:56:34;100662.19;;;4.69;nan
69980;BME280;57318;56.232;43.944;2024-03-02T07:59:01;100658.97;;;4.86;nan
69980;BME280;57318;56.232;43.944;2024-03-02T08:01:28;100662.31;;;4.90;nan
69980;BME280;57318;56.232;43.944;2024-03-02T08:03:59;100662.38;;;4.88;nan
69980;BME280;57318;56.232;43.944;2024-03-02T08:06:29;100659.47;;;4.96;nan
69980;BME280;57318;56.232;43.944;2024-03-02T08:08:56;100666.34;;;5.00;nan
69980;BME280;57318;56.232;43.944;2024-03-02T08:11:21;100658.78;;;4.91;nan
69980;BME280;57318;56.232;43.944;2024-03-02T08:13:48;100662.38;;;4.88;nan
69980;BME280;57318;56.232;43.944;2024-03-02T08:16:17;100668.59;;;4.87;nan
69980;BME280;57318;56.232;43.944;2024-03-02T08:18:47;100661.81;;;4.80;nan
69980;BME280;57318;56.232;43.944;2024-03-02T08:21:13;100664.66;;;4.74;nan
69980;BME280;57318;56.232;43.944;2024-03-02T08:23:40;100660.38;;;4.46;nan
69980;BME280;57318;56.232;43.944;2024-03-02T08:26:07;100651.16;;;4.60;nan
69980;BME280;57318;56.232;43.944;2024-03-02T08:28:33;100657.53;;;4.52;nan
69980;BME280;57318;56.232;43.944;2024-03-02T08:35:06;100653.41;;;4.70;nan
69980;BME280;57318;56.232;43.944;2024-03-02T08:37:32;100652.78;;;4.87;nan
69980;BME280;57318;56.232;43.944;2024-03-02T08:39:58;100662.44;;;5.11;nan
69980;BME280;57318;56.232;43.944;2024-03-02T08:42:24;100669.53;;;5.32;nan
69980;BME280;57318;56.232;43.944;2024-03-02T08:44:50;100677.28;;;5.59;nan
69980;BME280;57318;56.232;43.944;2024-03-02T08:47:15;100667.66;;;5.80;nan
69980;BME280;57318;56.232;43.944;2024-03-02T08:49:41;100670.97;;;5.85;nan
69980;BME280;57318;56.232;43.944;2024-03-02T08:52:07;100672.13;;;5.78;nan
69980;BME280;57318;56.232;43.944;2024-03-02T08:54:32;100668.81;;;5.51;nan
69980;BME280;57318;56.232;43.944;2024-03-02T08:56:59;100661.44;;;5.37;nan
69980;BME280;57318;56.232;43.944;2024-03-02T08:59:25;100658.72;;;5.16;nan
69980;BME280;57318;56.232;43.944;2024-03-02T09:01:53;100665.78;;;5.16;nan
69980;BME280;57318;56.232;43.944;2024-03-02T09:04:19;100660.28;;;4.98;nan
69980;BME280;57318;56.232;43.944;2024-03-02T09:06:44;100660.44;;;5.17;nan
69980;BME280;57318;56.232;43.944;2024-03-02T09:09:10;100652.81;;;5.33;nan
69980;BME280;57318;56.232;43.944;2024-03-02T09:11:36;100652.00;;;5.31;nan
69980;BME280;57318;56.232;43.944;2024-03-02T09:14:02;100654.84;;;5.27;nan
69980;BME280;57318;56.232;43.944;2024-03-02T09:16:28;100649.94;;;5.39;nan
69980;BME280;57318;56.232;43.944;2024-03-02T09:18:56;100657.22;;;5.55;nan
69980;BME280;57318;56.232;43.944;2024-03-02T09:21:22;100651.78;;;5.82;nan
69980;BME280;57318;56.232;43.944;2024-03-02T09:23:48;100651.50;;;5.88;nan
69980;BME280;57318;56.232;43.944;2024-03-02T09:26:14;100659.38;;;5.67;nan
69980;BME280;57318;56.232;43.944;2024-03-02T09:28:43;100662.41;;;5.34;nan
69980;BME280;57318;56.232;43.944;2024-03-02T09:31:09;100655.19;;;5.17;nan
69980;BME280;57318;56.232;43.944;2024-03-02T09:33:35;100662.78;;;5.25;nan
69980;BME280;57318;56.232;43.944;2024-03-02T09:36:00;100659.22;;;5.26;nan
69980;BME280;57318;56.232;43.944;2024-03-02T09:38:26;100669.53;;;5.32;nan
69980;BME280;57318;56.232;43.944;2024-03-02T09:40:52;100664.00;;;5.16;nan
69980;BME280;57318;56.232;43.944;2024-03-02T09:43:17;100669.72;;;4.80;nan
69980;BME280;57318;56.232;43.944;2024-03-02T09:45:44;100668.34;;;4.70;nan
69980;BME280;57318;56.232;43.944;2024-03-02T09:48:10;100669.25;;;4.44;nan
69980;BME280;57318;56.232;43.944;2024-03-02T09:50:36;100674.09;;;4.31;nan
69980;BME280;57318;56.232;43.944;2024-03-02T09:53:01;100678.44;;;4.05;nan
69980;BME280;57318;56.232;43.944;2024-03-02T09:55:28;100678.25;;;3.85;nan
69980;BME280;57318;56.232;43.944;2024-03-02T09:57:54;100684.47;;;4.09;nan
69980;BME280;57318;56.232;43.944;2024-03-02T10:00:21;100673.31;;;4.27;nan
69980;BME280;57318;56.232;43.944;2024-03-02T10:02:47;100674.94;;;4.31;nan
69980;BME280;57318;56.232;43.944;2024-03-02T10:05:23;100677.63;;;4.30;nan
69980;BME280;57318;56.232;43.944;2024-03-02T10:08:02;100681.81;;;4.36;nan
69980;BME280;57318;56.232;43.944;2024-03-02T10:10:39;100680.09;;;4.34;nan
69980;BME280;57318;56.232;43.944;2024-03-02T10:13:06;100670.03;;;4.21;nan
69980;BME280;57318;56.232;43.944;2024-03-02T10:15:33;100675.91;;;4.29;nan
69980;BME280;57318;56.232;43.944;2024-03-02T10:17:59;100671.94;;;4.17;nan
69980;BME280;57318;56.232;43.944;2024-03-02T10:20:25;100678.09;;;4.16;nan
69980;BME280;57318;56.232;43.944;2024-03-02T10:22:54;100683.50;;;4.11;nan
69980;BME280;57318;56.232;43.944;2024-03-02T10:25:29;100687.00;;;4.12;nan
69980;BME280;57318;56.232;43.944;2024-03-02T10:27:59;100689.94;;;4.03;nan
69980;BME280;57318;56.232;43.944;2024-03-02T10:30:26;100696.16;;;4.00;nan
69980;BME280;57318;56.232;43.944;2024-03-02T10:32:55;100694.63;;;3.65;nan
69980;BME280;57318;56.232;43.944;2024-03-02T10:35:22;100702.56;;;3.63;nan
69980;BME280;57318;56.232;43.944;2024-03-02T10:37:49;100694.63;;;3.65;nan
69980;BME280;57318;56.232;43.944;2024-03-02T10:40:15;100699.78;;;3.39;nan
69980;BME280;57318;56.232;43.944;2024-03-02T10:42:44;100696.69;;;3.55;nan
69980;BME280;57318;56.232;43.944;2024-03-02T10:45:11;100696.19;;;3.72;nan
69980;BME280;57318;56.232;43.944;2024-03-02T10:47:38;100698.28;;;3.89;nan
69980;BME280;57318;56.232;43.944;2024-03-02T10:50:10;100702.13;;;4.05;nan
69980;BME280;57318;56.232;43.944;2024-03-02T10:52:39;100709.06;;;4.08;nan
69980;BME280;57318;56.232;43.944;2024-03-02T10:55:09;100701.75;;;4.16;nan
69980;BME280;57318;56.232;43.944;2024-03-02T10:57:50;100699.94;;;4.18;nan
69980;BME280;57318;56.232;43.944;2024-03-02T11:00:16;100697.81;;;4.29;nan
69980;BME280;57318;56.232;43.944;2024-03-02T11:02:52;100699.41;;;4.33;nan
69980;BME280;57318;56.232;43.944;2024-03-02T11:05:28;100708.75;;;4.44;nan
69980;BME280;57318;56.232;43.944;2024-03-02T11:08:02;100705.00;;;4.49;nan
69980;BME280;57318;56.232;43.944;2024-03-02T11:10:37;100711.31;;;4.45;nan
69980;BME280;57318;56.232;43.944;2024-03-02T11:13:11;100716.03;;;4.36;nan
69980;BME280;57318;56.232;43.944;2024-03-02T11:15:40;100711.31;;;4.45;nan
69980;BME280;57318;56.232;43.944;2024-03-02T11:18:08;100718.78;;;4.32;nan
69980;BME280;57318;56.232;43.944;2024-03-02T11:20:40;100719.31;;;4.42;nan
69980;BME280;57318;56.232;43.944;2024-03-02T11:23:08;100711.09;;;4.26;nan
69980;BME280;57318;56.232;43.944;2024-03-02T11:25:35;100713.25;;;4.40;nan
69980;BME280;57318;56.232;43.944;2024-03-02T11:28:07;100717.28;;;4.50;nan
69980;BME280;57318;56.232;43.944;2024-03-02T11:33:07;100713.16;;;4.68;nan
69980;BME280;57318;56.232;43.944;2024-03-02T11:35:43;100714.75;;;4.73;nan
69980;BME280;57318;56.232;43.944;2024-03-02T11:38:12;100718.53;;;4.65;nan
69980;BME280;57318;56.232;43.944;2024-03-02T11:40:41;100727.44;;;4.61;nan
69980;BME280;57318;56.232;43.944;2024-03-02T11:43:07;100724.16;;;4.55;nan
69980;BME280;57318;56.232;43.944;2024-03-02T11:45:36;100722.22;;;4.60;nan
69980;BME280;57318;56.232;43.944;2024-03-02T11:48:06;100723.59;;;4.45;nan
69980;BME280;57318;56.232;43.944;2024-03-02T11:50:36;100710.78;;;4.36;nan
69980;BME280;57318;56.232;43.944;2024-03-02T11:53:06;100720.94;;;4.20;nan
69980;BME280;57318;56.232;43.944;2024-03-02T11:55:37;100728.16;;;4.13;nan
69980;BME280;57318;56.232;43.944;2024-03-02T11:58:06;100732.47;;;4.15;nan
69980;BME280;57318;56.232;43.944;2024-03-02T12:00:32;100733.44;;;4.13;nan
69980;BME280;57318;56.232;43.944;2024-03-02T12:03:04;100728.56;;;4.01;nan
69980;BME280;57318;56.232;43.944;2024-03-02T12:05:29;100735.78;;;3.94;nan
69980;BME280;57318;56.232;43.944;2024-03-02T12:07:59;100729.22;;;3.81;nan
69980;BME280;57318;56.232;43.944;2024-03-02T12:10:26;100748.94;;;3.94;nan
69980;BME280;57318;56.232;43.944;2024-03-02T12:12:59;100741.09;;;3.92;nan
69980;BME280;57318;56.232;43.944;2024-03-02T12:15:29;100742.31;;;3.82;nan
69980;BME280;57318;56.232;43.944;2024-03-02T12:17:55;100739.94;;;3.74;nan
69980;BME280;57318;56.232;43.944;2024-03-02T12:20:22;100734.63;;;3.76;nan
69980;BME280;57318;56.232;43.944;2024-03-02T12:22:50;100745.50;;;3.64;nan
69980;BME280;57318;56.232;43.944;2024-03-02T12:25:19;100749.56;;;3.44;nan
69980;BME280;57318;56.232;43.944;2024-03-02T12:27:46;100747.75;;;3.48;nan
69980;BME280;57318;56.232;43.944;2024-03-02T12:30:12;100746.00;;;3.47;nan
69980;BME280;57318;56.232;43.944;2024-03-02T12:32:40;100746.16;;;3.42;nan
69980;BME280;57318;56.232;43.944;2024-03-02T12:35:06;100747.66;;;3.51;nan
69980;BME280;57318;56.232;43.944;2024-03-02T12:37:32;100746.44;;;3.61;nan
69980;BME280;57318;56.232;43.944;2024-03-02T12:39:59;100749.50;;;3.75;nan
69980;BME280;57318;56.232;43.944;2024-03-02T12:42:24;100747.66;;;3.79;nan
69980;BME280;57318;56.232;43.944;2024-03-02T12:44:53;100745.09;;;4.06;nan
69980;BME280;57318;56.232;43.944;2024-03-02T12:47:22;100746.53;;;4.41;nan
69980;BME280;57318;56.232;43.944;2024-03-02T12:49:48;100744.69;;;4.70;nan
69980;BME280;57318;56.232;43.944;2024-03-02T12:52:16;100745.53;;;4.96;nan
69980;BME280;57318;56.232;43.944;2024-03-02T12:54:42;100749.03;;;5.67;nan
69980;BME280;57318;56.232;43.944;2024-03-02T12:57:08;100748.03;;;6.58;nan
69980;BME280;57318;56.232;43.944;2024-03-02T12:59:34;100751.16;;;7.85;nan
69980;BME280;57318;56.232;43.944;2024-03-02T13:02:00;100746.31;;;8.66;nan
69980;BME280;57318;56.232;43.944;2024-03-02T13:04:28;100740.53;;;9.43;nan
69980;BME280;57318;56.232;43.944;2024-03-02T13:06:55;100741.69;;;9.54;nan
69980;BME280;57318;56.232;43.944;2024-03-02T13:09:24;100750.22;;;10.07;nan
69980;BME280;57318;56.232;43.944;2024-03-02T13:11:57;100751.66;;;10.59;nan
69980;BME280;57318;56.232;43.944;2024-03-02T13:14:33;100748.34;;;11.00;nan
69980;BME280;57318;56.232;43.944;2024-03-02T13:16:59;100744.16;;;10.96;nan
69980;BME280;57318;56.232;43.944;2024-03-02T13:19:25;100746.44;;;11.17;nan
69980;BME280;57318;56.232;43.944;2024-03-02T13:21:51;100749.28;;;11.43;nan
69980;BME280;57318;56.232;43.944;2024-03-02T13:24:16;100744.78;;;11.72;nan